DTKA/TBJ METAR and TAF weather

Enter ICAO airport designator
Station Type Date Time Source
DTKA METAR 2020/09/27 17:00 UTC NOAA

DTKA 271700Z 24013KT 9999 SCT020 SCT030 19/13 Q1011 NOSIG


Station Type Date Time Source
DTKA Decoded METAR 2020/09/27 17:00 UTC NOAA

Tabarka, Tunisia (DTKA) 36-57N 008-45E 21M
Sep 27, 2020 - 01:00 PM EDT / 2020.09.27 1700 UTC
Wind: from the WSW (240 degrees) at 15 MPH (13 KT):0
Visibility: greater than 7 mile(s):0
Sky conditions: partly cloudy
Temperature: 66 F (19 C)
Dew Point: 55 F (13 C)
Relative Humidity: 68%
Pressure (altimeter): 29.85 in. Hg (1011 hPa)
ob: DTKA 271700Z 24013KT 9999 SCT020 SCT030 19/13 Q1011 NOSIG
cycle: 17

Station Type Date Time Source
DTKA TAF 2020/09/02 19:17 UTC NOAA

TAF DTKA 021800Z 0219/0310 35005KT 9999 SCT020

Example: see airport list